Time;durP1;ratioP1;P1;durP2;ratioP2;P2;SDS_P1;SDS_P2;PMS_P1;PMS_P2;Temp;Humidity;BMP_temperature;BMP_pressure;BME280_temperature;BME280_humidity;BME280_pressure;Samples;Min_cycle;Max_cycle;Signal;HPM_P1;HPM_P2
2022/04/29 00:01:37;;;;;;;;;;;7.40;99.90;;;;;;5046199;28;19928;-79
2022/04/29 00:04:04;;;;;;;;;;;7.30;99.90;;;;;;5051591;28;19929;-79
2022/04/29 00:06:30;;;;;;;;;;;7.30;99.90;;;;;;5025198;28;19926;-80
2022/04/29 00:08:57;;;;;;;;;;;7.30;99.90;;;;;;5025836;28;19933;-79
2022/04/29 00:11:27;;;;;;;;;;;7.40;99.90;;;;;;5048261;28;19925;-82
2022/04/29 00:13:54;;;;;;;;;;;7.40;99.90;;;;;;5051325;28;19925;-79
2022/04/29 00:16:21;;;;;;;;;;;7.40;99.90;;;;;;5032911;28;19932;-82
2022/04/29 00:18:47;;;;;;;;;;;7.30;99.90;;;;;;5030644;28;20395;-79
2022/04/29 00:21:14;;;;;;;;;;;7.30;99.90;;;;;;5028079;28;20295;-78
2022/04/29 00:23:41;;;;;;;;;;;7.30;99.90;;;;;;5047767;28;19932;-78
2022/04/29 00:26:07;;;;;;;;;;;7.30;99.90;;;;;;5034333;28;19929;-78
2022/04/29 00:28:34;;;;;;;;;;;7.20;99.90;;;;;;5044807;28;19928;-79
2022/04/29 00:31:00;;;;;;;;;;;7.30;99.90;;;;;;5035833;28;19932;-79
2022/04/29 00:33:27;;;;;;;;;;;7.20;99.90;;;;;;5044381;28;20365;-79
2022/04/29 00:35:54;;;;;;;;;;;7.20;99.90;;;;;;5029875;28;19963;-79
2022/04/29 00:38:20;;;;;;;;;;;7.20;99.90;;;;;;5035758;28;20261;-79
2022/04/29 00:40:47;;;;;;;;;;;7.20;99.90;;;;;;5055120;28;20118;-79
2022/04/29 00:43:13;;;;;;;;;;;7.10;99.90;;;;;;5050962;28;19925;-78
2022/04/29 00:45:40;;;;;;;;;;;7.10;99.90;;;;;;5054499;28;19924;-78
2022/04/29 00:48:07;;;;;;;;;;;7.10;99.90;;;;;;5054757;28;19924;-80
2022/04/29 00:50:33;;;;;;;;;;;7.20;99.90;;;;;;5035748;28;19972;-79
2022/04/29 00:53:00;;;;;;;;;;;7.10;99.90;;;;;;5040649;28;20015;-79
2022/04/29 00:55:27;;;;;;;;;;;7.10;99.90;;;;;;5051641;28;19932;-81
2022/04/29 00:57:53;;;;;;;;;;;7.10;99.90;;;;;;5038795;28;19929;-78
2022/04/29 01:00:20;;;;;;;;;;;7.10;99.90;;;;;;5054778;28;20368;-79
2022/04/29 01:02:46;;;;;;;;;;;7.20;99.90;;;;;;5054571;28;19928;-78
2022/04/29 01:05:13;;;;;;;;;;;7.20;99.90;;;;;;5024575;28;19924;-79
2022/04/29 01:07:39;;;;;;;;;;;7.10;99.90;;;;;;5035675;28;19939;-78
2022/04/29 01:10:06;;;;;;;;;;;7.10;99.90;;;;;;5036030;28;19929;-80
2022/04/29 01:12:32;;;;;;;;;;;7.10;99.90;;;;;;5042925;28;19925;-79
2022/04/29 01:14:59;;;;;;;;;;;7.10;99.90;;;;;;5025871;28;19932;-79
2022/04/29 01:17:26;;;;;;;;;;;7.20;99.90;;;;;;5036634;28;19925;-85
2022/04/29 01:19:52;;;;;;;;;;;7.10;99.90;;;;;;5023814;28;20430;-80
2022/04/29 01:22:19;;;;;;;;;;;7.10;99.90;;;;;;5021364;28;19925;-79
2022/04/29 01:24:45;;;;;;;;;;;7.20;99.90;;;;;;5054744;28;20653;-79
2022/04/29 01:27:13;;;;;;;;;;;7.10;99.90;;;;;;5027902;28;20364;-80
2022/04/29 01:29:39;;;;;;;;;;;7.10;99.90;;;;;;5031995;28;20078;-80
2022/04/29 01:32:06;;;;;;;;;;;7.10;99.90;;;;;;5037134;28;19925;-79
2022/04/29 01:34:32;;;;;;;;;;;7.10;99.90;;;;;;5036395;28;19948;-79
2022/04/29 01:36:59;;;;;;;;;;;7.00;99.90;;;;;;5036742;28;20374;-80
2022/04/29 01:39:25;;;;;;;;;;;7.10;99.90;;;;;;5054465;28;19925;-83
2022/04/29 01:41:52;;;;;;;;;;;7.00;99.90;;;;;;5043312;28;20398;-78
2022/04/29 01:44:19;;;;;;;;;;;7.00;99.90;;;;;;5022343;28;19972;-78
2022/04/29 01:46:46;;;;;;;;;;;7.00;99.90;;;;;;5023859;28;19925;-79
2022/04/29 01:49:13;;;;;;;;;;;7.00;99.90;;;;;;5038331;28;19932;-79
2022/04/29 01:51:39;;;;;;;;;;;6.90;99.90;;;;;;5049167;28;19932;-80
2022/04/29 01:54:10;;;;;;;;;;;6.90;99.90;;;;;;5036723;28;19971;-80
2022/04/29 01:56:37;;;;;;;;;;;6.90;99.90;;;;;;5051748;28;19924;-78
2022/04/29 01:59:04;;;;;;;;;;;6.90;99.90;;;;;;5036206;28;20318;-80
2022/04/29 02:01:31;;;;;;;;;;;6.90;99.90;;;;;;5023464;28;20016;-79
2022/04/29 02:03:58;;;;;;;;;;;6.90;99.90;;;;;;5054245;28;19924;-77
2022/04/29 02:06:26;;;;;;;;;;;6.90;99.90;;;;;;5036391;28;19928;-79
2022/04/29 02:08:53;;;;;;;;;;;6.90;99.90;;;;;;5034524;28;19925;-79
2022/04/29 02:11:20;;;;;;;;;;;6.90;99.90;;;;;;5024261;28;19925;-79
2022/04/29 02:13:46;;;;;;;;;;;6.90;99.90;;;;;;5030176;28;19932;-79
2022/04/29 02:16:13;;;;;;;;;;;6.90;99.90;;;;;;5031422;28;19940;-79
2022/04/29 02:18:39;;;;;;;;;;;6.90;99.90;;;;;;5023757;28;19925;-78
2022/04/29 02:21:06;;;;;;;;;;;6.90;99.90;;;;;;5034859;28;19924;-80
2022/04/29 02:23:32;;;;;;;;;;;6.90;99.90;;;;;;5035735;28;19931;-79
2022/04/29 02:26:00;;;;;;;;;;;6.90;99.90;;;;;;5036256;28;19947;-80
2022/04/29 02:28:27;;;;;;;;;;;6.80;99.90;;;;;;5028346;28;19924;-78
2022/04/29 02:30:54;;;;;;;;;;;6.80;99.90;;;;;;5044225;28;19969;-78
2022/04/29 02:33:20;;;;;;;;;;;6.80;99.90;;;;;;5035536;28;19925;-79
2022/04/29 02:35:47;;;;;;;;;;;6.70;99.90;;;;;;5043506;28;19925;-79
2022/04/29 02:38:13;;;;;;;;;;;6.80;99.90;;;;;;5030518;28;20422;-80
2022/04/29 02:40:40;;;;;;;;;;;6.70;99.90;;;;;;5043578;28;19925;-79
2022/04/29 02:43:06;;;;;;;;;;;6.60;99.90;;;;;;5029975;28;19972;-79
2022/04/29 02:45:33;;;;;;;;;;;6.60;99.90;;;;;;5034406;28;19932;-80
2022/04/29 02:48:00;;;;;;;;;;;6.60;99.90;;;;;;5052866;28;20432;-80
2022/04/29 02:50:26;;;;;;;;;;;6.60;99.90;;;;;;5032433;28;19944;-80
2022/04/29 02:52:53;;;;;;;;;;;6.50;99.90;;;;;;5021384;28;20399;-79
2022/04/29 02:55:19;;;;;;;;;;;6.50;99.90;;;;;;5035589;28;20371;-79
2022/04/29 02:57:46;;;;;;;;;;;6.50;99.90;;;;;;5022370;28;19929;-79
2022/04/29 03:00:12;;;;;;;;;;;6.50;99.90;;;;;;5035460;28;19924;-79
2022/04/29 03:02:39;;;;;;;;;;;6.50;99.90;;;;;;5030864;28;19936;-79
2022/04/29 03:05:05;;;;;;;;;;;6.50;99.90;;;;;;5023959;28;19987;-80
2022/04/29 03:07:33;;;;;;;;;;;6.50;99.90;;;;;;5051835;28;19925;-85
2022/04/29 03:09:59;;;;;;;;;;;6.50;99.90;;;;;;5035409;28;20386;-79
2022/04/29 03:12:26;;;;;;;;;;;6.50;99.90;;;;;;5049260;28;19935;-78
2022/04/29 03:14:52;;;;;;;;;;;6.60;99.90;;;;;;5052035;28;19928;-78
2022/04/29 03:20:04;;;;;;;;;;;6.60;99.90;;;;;;5022111;28;19964;-79
2022/04/29 03:22:30;;;;;;;;;;;6.60;99.90;;;;;;5029290;28;20016;-78
2022/04/29 03:24:57;;;;;;;;;;;6.60;99.90;;;;;;5042061;28;19982;-79
2022/04/29 03:27:23;;;;;;;;;;;6.60;99.90;;;;;;5052124;28;19929;-79
2022/04/29 03:29:50;;;;;;;;;;;6.60;99.90;;;;;;5023064;28;19924;-79
2022/04/29 03:32:18;;;;;;;;;;;6.60;99.90;;;;;;5031552;28;19948;-79
2022/04/29 03:34:45;;;;;;;;;;;6.70;99.90;;;;;;5033933;28;19950;-79
2022/04/29 03:37:11;;;;;;;;;;;6.70;99.90;;;;;;5025340;28;19964;-79
2022/04/29 03:39:38;;;;;;;;;;;6.70;99.90;;;;;;5035850;28;19971;-79
2022/04/29 03:42:04;;;;;;;;;;;6.70;99.90;;;;;;5043143;28;19931;-79
2022/04/29 03:44:31;;;;;;;;;;;6.70;99.90;;;;;;5033882;28;19925;-80
2022/04/29 03:46:57;;;;;;;;;;;6.60;99.90;;;;;;5047230;28;19925;-78
2022/04/29 03:49:36;;;;;;;;;;;6.60;99.90;;;;;;5048992;28;20394;-79
2022/04/29 03:52:03;;;;;;;;;;;6.60;99.90;;;;;;5039427;28;19979;-79
2022/04/29 03:54:30;;;;;;;;;;;6.60;99.90;;;;;;5044486;28;19933;-79
2022/04/29 03:56:56;;;;;;;;;;;6.60;99.90;;;;;;5033533;28;20394;-78
2022/04/29 03:59:23;;;;;;;;;;;6.60;99.90;;;;;;5040788;28;19931;-80
2022/04/29 04:01:49;;;;;;;;;;;6.60;99.90;;;;;;5026997;28;19929;-80
2022/04/29 04:04:16;;;;;;;;;;;6.50;99.90;;;;;;5048730;28;19925;-79
2022/04/29 04:06:52;;;;;;;;;;;6.50;99.90;;;;;;5040250;28;19929;-80
2022/04/29 04:09:18;;;;;;;;;;;6.50;99.90;;;;;;5049009;28;19931;-80
2022/04/29 04:11:45;;;;;;;;;;;6.50;99.90;;;;;;5033643;28;19967;-79
2022/04/29 04:14:11;;;;;;;;;;;6.40;99.90;;;;;;5040310;28;19929;-79
2022/04/29 04:16:38;;;;;;;;;;;6.40;99.90;;;;;;5050831;28;19929;-79
2022/04/29 04:19:05;;;;;;;;;;;6.40;99.90;;;;;;5028472;28;20365;-79
2022/04/29 04:21:32;;;;;;;;;;;6.40;99.90;;;;;;5051492;28;19925;-79
2022/04/29 04:23:58;;;;;;;;;;;6.40;99.90;;;;;;5051100;28;19924;-79
2022/04/29 04:26:25;;;;;;;;;;;6.40;99.90;;;;;;5045773;28;19925;-79
2022/04/29 04:28:51;;;;;;;;;;;6.40;99.90;;;;;;5045995;28;20303;-80
2022/04/29 04:31:21;;;;;;;;;;;6.40;99.90;;;;;;5024762;28;19970;-79
2022/04/29 04:33:47;;;;;;;;;;;6.50;99.90;;;;;;5033507;28;20015;-79
2022/04/29 04:36:14;;;;;;;;;;;6.50;99.90;;;;;;5043290;28;19925;-79
2022/04/29 04:38:42;;;;;;;;;;;6.50;99.90;;;;;;5032924;28;19929;-80
2022/04/29 04:41:08;;;;;;;;;;;6.50;99.90;;;;;;5033733;28;20315;-79
2022/04/29 04:43:35;;;;;;;;;;;6.50;99.90;;;;;;5047428;28;20292;-77
2022/04/29 04:46:01;;;;;;;;;;;6.60;99.90;;;;;;5025723;28;19970;-78
2022/04/29 04:48:28;;;;;;;;;;;6.60;99.90;;;;;;5045927;28;19925;-79
2022/04/29 04:50:54;;;;;;;;;;;6.70;99.90;;;;;;5021945;28;19924;-78
2022/04/29 04:53:21;;;;;;;;;;;6.70;99.90;;;;;;5033214;28;19986;-79
2022/04/29 04:55:48;;;;;;;;;;;6.70;99.90;;;;;;5025562;28;19925;-78
2022/04/29 04:58:14;;;;;;;;;;;6.70;99.90;;;;;;5033598;28;19932;-78
2022/04/29 05:00:41;;;;;;;;;;;6.80;99.90;;;;;;5050747;28;19932;-79
2022/04/29 05:03:08;;;;;;;;;;;6.80;99.90;;;;;;5026853;28;19929;-80
2022/04/29 05:05:34;;;;;;;;;;;6.80;99.90;;;;;;5038279;28;19944;-82
2022/04/29 05:08:01;;;;;;;;;;;6.80;99.90;;;;;;5038647;28;19924;-79
2022/04/29 05:10:28;;;;;;;;;;;6.80;99.90;;;;;;5045175;28;19952;-79
2022/04/29 05:12:54;;;;;;;;;;;6.90;99.90;;;;;;5034572;28;19936;-81
2022/04/29 05:15:21;;;;;;;;;;;6.90;99.90;;;;;;5036949;28;19924;-79
2022/04/29 05:17:47;;;;;;;;;;;6.90;99.90;;;;;;5040791;28;19931;-79
2022/04/29 05:20:15;;;;;;;;;;;6.90;99.90;;;;;;5032224;28;19925;-79
2022/04/29 05:22:42;;;;;;;;;;;7.00;99.90;;;;;;5052273;28;19925;-82
2022/04/29 05:25:08;;;;;;;;;;;7.00;99.90;;;;;;5044705;28;19932;-79
2022/04/29 05:27:35;;;;;;;;;;;7.00;99.90;;;;;;5044060;28;19925;-79
2022/04/29 05:30:02;;;;;;;;;;;7.10;99.90;;;;;;5032079;28;20044;-79
2022/04/29 05:32:30;;;;;;;;;;;7.10;99.90;;;;;;5052697;28;19939;-79
2022/04/29 05:34:56;;;;;;;;;;;7.20;99.90;;;;;;5051421;28;19924;-79
2022/04/29 05:37:23;;;;;;;;;;;7.20;99.90;;;;;;5057523;28;19925;-79
2022/04/29 05:42:34;;;;;;;;;;;7.40;99.90;;;;;;5035378;28;19948;-80
2022/04/29 05:45:00;;;;;;;;;;;7.50;99.90;;;;;;5033331;28;20461;-79
2022/04/29 05:47:27;;;;;;;;;;;7.60;99.90;;;;;;5048306;28;19948;-79
2022/04/29 05:49:53;;;;;;;;;;;7.60;99.90;;;;;;5039640;28;20287;-80
2022/04/29 05:52:20;;;;;;;;;;;7.70;99.90;;;;;;5038018;28;19925;-79
2022/04/29 05:54:46;;;;;;;;;;;7.80;99.90;;;;;;5032548;28;19924;-79
2022/04/29 05:57:13;;;;;;;;;;;7.80;99.90;;;;;;5052288;28;19928;-80
2022/04/29 05:59:39;;;;;;;;;;;7.90;99.90;;;;;;5051401;28;20273;-80
2022/04/29 06:02:06;;;;;;;;;;;7.90;99.90;;;;;;5045154;28;19932;-78
2022/04/29 06:04:32;;;;;;;;;;;8.00;99.90;;;;;;5036671;28;19932;-80
2022/04/29 06:06:59;;;;;;;;;;;8.00;99.90;;;;;;5043216;28;20391;-79
2022/04/29 06:09:26;;;;;;;;;;;8.10;99.90;;;;;;5036240;28;19932;-79
2022/04/29 06:11:53;;;;;;;;;;;8.10;99.90;;;;;;5055171;28;19924;-80
2022/04/29 06:14:19;;;;;;;;;;;8.10;99.90;;;;;;5063671;28;19928;-79
2022/04/29 06:16:46;;;;;;;;;;;8.20;99.90;;;;;;5054020;28;19986;-84
2022/04/29 06:19:13;;;;;;;;;;;8.40;99.90;;;;;;5042863;28;19925;-80
2022/04/29 06:21:40;;;;;;;;;;;8.50;99.90;;;;;;5042472;28;19925;-78
2022/04/29 06:24:06;;;;;;;;;;;8.50;99.90;;;;;;5045607;28;19925;-79
2022/04/29 06:26:33;;;;;;;;;;;8.50;99.90;;;;;;5033044;28;19932;-80
2022/04/29 06:28:59;;;;;;;;;;;8.60;99.90;;;;;;5027922;28;19925;-79
2022/04/29 06:31:26;;;;;;;;;;;8.70;99.90;;;;;;5057200;28;19929;-79
2022/04/29 06:33:52;;;;;;;;;;;8.70;99.90;;;;;;5036176;28;19932;-80
2022/04/29 06:36:19;;;;;;;;;;;8.70;99.90;;;;;;5045742;28;19925;-79
2022/04/29 06:38:46;;;;;;;;;;;8.80;99.90;;;;;;5054439;28;19925;-84
2022/04/29 06:41:12;;;;;;;;;;;8.80;99.90;;;;;;5059076;28;19925;-80
2022/04/29 06:43:39;;;;;;;;;;;8.60;99.90;;;;;;5059685;28;19932;-80
2022/04/29 06:46:05;;;;;;;;;;;8.70;99.90;;;;;;5050365;28;19929;-79
2022/04/29 06:48:32;;;;;;;;;;;8.70;99.90;;;;;;5050987;28;20446;-80
2022/04/29 06:50:58;;;;;;;;;;;8.80;99.90;;;;;;5044154;28;19931;-79
2022/04/29 06:53:25;;;;;;;;;;;8.90;99.90;;;;;;5054670;28;19932;-79
2022/04/29 06:55:51;;;;;;;;;;;8.80;99.90;;;;;;5033359;28;19933;-80
2022/04/29 06:58:18;;;;;;;;;;;8.70;99.90;;;;;;5042527;28;20391;-79
2022/04/29 07:00:45;;;;;;;;;;;8.80;99.90;;;;;;5039096;28;19925;-79
2022/04/29 07:03:11;;;;;;;;;;;8.80;99.90;;;;;;5043965;28;19932;-79
2022/04/29 07:05:38;;;;;;;;;;;8.80;99.90;;;;;;5049186;28;19925;-79
2022/04/29 07:08:05;;;;;;;;;;;8.70;99.90;;;;;;5039167;28;19967;-79
2022/04/29 07:10:31;;;;;;;;;;;8.80;99.90;;;;;;5036635;28;19932;-81
2022/04/29 07:12:58;;;;;;;;;;;8.70;99.90;;;;;;5028972;28;19925;-84
2022/04/29 07:15:24;;;;;;;;;;;8.80;99.90;;;;;;5034803;28;19932;-78
2022/04/29 07:17:51;;;;;;;;;;;8.80;99.90;;;;;;5045954;28;19926;-84
2022/04/29 07:20:18;;;;;;;;;;;8.80;99.90;;;;;;5029319;28;19932;-80
2022/04/29 07:22:44;;;;;;;;;;;8.90;99.90;;;;;;5035943;28;20417;-79
2022/04/29 07:25:11;;;;;;;;;;;8.90;99.90;;;;;;5039507;28;19921;-80
2022/04/29 07:27:39;;;;;;;;;;;8.90;99.90;;;;;;5049023;28;19948;-80
2022/04/29 07:30:06;;;;;;;;;;;8.90;99.90;;;;;;5040387;28;19941;-80
2022/04/29 07:32:33;;;;;;;;;;;8.90;99.90;;;;;;5039947;28;19928;-79
2022/04/29 07:43:12;;;;;;;;;;;9.10;99.90;;;;;;5034516;28;20645;-79
2022/04/29 07:45:39;;;;;;;;;;;9.10;99.90;;;;;;5033810;28;20430;-80
2022/04/29 07:48:05;;;;;;;;;;;9.20;99.90;;;;;;5033888;28;19960;-79
2022/04/29 07:50:32;;;;;;;;;;;9.30;99.90;;;;;;5033981;28;19929;-80
2022/04/29 07:52:58;;;;;;;;;;;9.40;99.90;;;;;;5032911;28;19929;-79
2022/04/29 07:55:25;;;;;;;;;;;9.30;99.90;;;;;;5040139;28;19925;-79
2022/04/29 07:57:52;;;;;;;;;;;9.20;99.90;;;;;;5051459;28;19932;-79
2022/04/29 08:00:18;;;;;;;;;;;9.30;99.90;;;;;;5035715;28;19932;-81
2022/04/29 08:02:45;;;;;;;;;;;9.40;99.90;;;;;;5036882;28;19925;-79
2022/04/29 08:05:11;;;;;;;;;;;9.40;99.90;;;;;;5055022;28;19940;-80
2022/04/29 08:07:38;;;;;;;;;;;9.40;99.90;;;;;;5053545;28;19931;-81
2022/04/29 08:10:04;;;;;;;;;;;9.60;99.90;;;;;;5032205;28;19929;-79
2022/04/29 08:12:31;;;;;;;;;;;9.80;99.90;;;;;;5031866;28;19929;-79
2022/04/29 08:14:58;;;;;;;;;;;9.90;99.90;;;;;;5038781;28;20292;-80
2022/04/29 08:17:25;;;;;;;;;;;9.80;99.90;;;;;;5033713;28;20283;-80
2022/04/29 08:19:52;;;;;;;;;;;9.80;99.90;;;;;;5052225;28;19929;-80
2022/04/29 08:22:18;;;;;;;;;;;9.80;99.90;;;;;;5032281;28;19970;-79
2022/04/29 08:24:45;;;;;;;;;;;9.80;99.90;;;;;;5024044;28;19925;-79
2022/04/29 08:27:12;;;;;;;;;;;9.90;99.90;;;;;;5045192;28;20176;-79
2022/04/29 08:29:38;;;;;;;;;;;10.10;99.90;;;;;;5051701;28;19932;-78
2022/04/29 08:32:05;;;;;;;;;;;10.30;99.90;;;;;;5033752;28;19936;-78
2022/04/29 08:34:31;;;;;;;;;;;10.40;99.90;;;;;;5024980;28;19939;-78
2022/04/29 08:37:02;;;;;;;;;;;10.30;99.90;;;;;;5039345;28;19964;-79
2022/04/29 08:39:29;;;;;;;;;;;10.40;99.90;;;;;;5025644;28;20018;-79
2022/04/29 08:41:55;;;;;;;;;;;10.40;99.90;;;;;;5049631;28;19925;-85
2022/04/29 08:44:23;;;;;;;;;;;10.40;99.90;;;;;;5036096;28;19929;-79
2022/04/29 08:46:49;;;;;;;;;;;10.40;99.90;;;;;;5027500;28;20375;-78
2022/04/29 08:49:16;;;;;;;;;;;10.50;99.90;;;;;;5029347;28;19935;-79
2022/04/29 08:51:44;;;;;;;;;;;10.50;99.90;;;;;;5052382;28;19929;-79
2022/04/29 08:58:36;;;;;;;;;;;10.50;99.90;;;;;;5042379;28;19935;-79
2022/04/29 08:59:41;;;;;;;;;;;10.50;99.90;;;;;;5033079;28;20349;-79
2022/04/29 09:02:08;;;;;;;;;;;10.40;99.90;;;;;;5036024;28;19925;-79
2022/04/29 09:04:35;;;;;;;;;;;10.30;99.90;;;;;;5059304;28;20359;-79
2022/04/29 09:07:01;;;;;;;;;;;10.30;99.90;;;;;;5054105;28;19971;-80
2022/04/29 09:09:28;;;;;;;;;;;10.30;99.90;;;;;;5058731;28;20430;-79
2022/04/29 09:11:54;;;;;;;;;;;10.30;99.90;;;;;;5055922;28;19939;-78
2022/04/29 09:14:21;;;;;;;;;;;10.20;99.90;;;;;;5047542;28;19929;-79
2022/04/29 09:16:48;;;;;;;;;;;10.10;99.90;;;;;;5039739;28;19925;-79
2022/04/29 09:19:15;;;;;;;;;;;10.20;99.90;;;;;;5051177;28;20067;-78
2022/04/29 09:21:42;;;;;;;;;;;10.20;99.90;;;;;;5037203;28;20322;-81
2022/04/29 09:24:10;;;;;;;;;;;10.30;99.90;;;;;;5035551;28;19971;-80
2022/04/29 09:26:38;;;;;;;;;;;10.30;99.90;;;;;;5034299;28;19975;-80
2022/04/29 09:29:05;;;;;;;;;;;10.30;99.90;;;;;;5049942;28;19924;-80
2022/04/29 09:31:31;;;;;;;;;;;10.20;99.90;;;;;;5040882;28;19925;-80
2022/04/29 09:33:58;;;;;;;;;;;10.10;99.90;;;;;;5053383;28;19928;-80
2022/04/29 09:36:25;;;;;;;;;;;10.00;99.90;;;;;;5036263;28;19925;-79
2022/04/29 09:41:35;;;;;;;;;;;10.40;99.90;;;;;;5031725;28;19931;-79
2022/04/29 09:44:02;;;;;;;;;;;10.60;99.90;;;;;;5035922;28;19924;-82
2022/04/29 09:46:29;;;;;;;;;;;10.60;99.90;;;;;;5027337;28;19925;-78
2022/04/29 09:48:55;;;;;;;;;;;10.80;99.90;;;;;;5032979;28;19929;-82
2022/04/29 09:51:22;;;;;;;;;;;10.80;99.90;;;;;;5029938;28;20016;-78
2022/04/29 09:53:48;;;;;;;;;;;10.80;99.90;;;;;;5053217;28;19931;-78
2022/04/29 09:56:15;;;;;;;;;;;10.90;99.90;;;;;;5049009;28;19931;-79
2022/04/29 09:58:41;;;;;;;;;;;11.00;99.90;;;;;;5038824;28;20011;-79
2022/04/29 10:01:09;;;;;;;;;;;11.00;99.90;;;;;;5034046;28;19929;-80
2022/04/29 10:03:36;;;;;;;;;;;11.00;99.90;;;;;;5030390;28;20389;-79
2022/04/29 10:06:03;;;;;;;;;;;11.00;99.90;;;;;;5042181;28;19924;-83
2022/04/29 10:08:29;;;;;;;;;;;11.20;99.90;;;;;;5037216;28;19932;-78
2022/04/29 10:10:56;;;;;;;;;;;11.10;99.90;;;;;;5025490;28;20292;-79
2022/04/29 10:13:23;;;;;;;;;;;11.10;99.90;;;;;;5031666;28;19925;-79
2022/04/29 10:15:49;;;;;;;;;;;11.10;99.90;;;;;;5025409;28;19931;-80
2022/04/29 10:21:19;;;;;;;;;;;11.20;99.90;;;;;;5037291;28;19925;-79
2022/04/29 10:23:48;;;;;;;;;;;11.10;99.90;;;;;;5034253;28;19929;-79
2022/04/29 10:26:15;;;;;;;;;;;11.00;99.90;;;;;;5030780;28;19929;-80
2022/04/29 10:28:41;;;;;;;;;;;11.00;99.90;;;;;;5022360;28;19976;-79
2022/04/29 10:31:09;;;;;;;;;;;11.10;99.90;;;;;;5022455;28;19925;-79
2022/04/29 10:33:36;;;;;;;;;;;11.30;99.90;;;;;;5044760;28;20008;-80
2022/04/29 10:36:03;;;;;;;;;;;11.40;99.90;;;;;;5031284;28;20402;-82
2022/04/29 10:38:31;;;;;;;;;;;11.30;99.90;;;;;;5045732;28;20304;-79
2022/04/29 10:40:57;;;;;;;;;;;11.20;99.90;;;;;;5030627;28;20341;-80
2022/04/29 10:43:24;;;;;;;;;;;11.20;99.90;;;;;;5032742;28;19937;-79
2022/04/29 10:45:50;;;;;;;;;;;11.20;99.90;;;;;;5050804;28;19931;-80
2022/04/29 10:48:17;;;;;;;;;;;11.20;99.90;;;;;;5026527;28;19925;-79
2022/04/29 10:50:43;;;;;;;;;;;11.30;99.90;;;;;;5029489;28;20011;-80
2022/04/29 10:53:10;;;;;;;;;;;11.30;99.90;;;;;;5028649;28;19933;-82
2022/04/29 10:55:36;;;;;;;;;;;11.40;99.90;;;;;;5047392;28;19929;-80
2022/04/29 10:58:03;;;;;;;;;;;11.50;99.60;;;;;;5058540;28;19939;-80
2022/04/29 11:00:30;;;;;;;;;;;11.50;99.90;;;;;;5023546;28;19929;-81
2022/04/29 11:02:57;;;;;;;;;;;11.50;99.70;;;;;;5039913;28;19960;-79
2022/04/29 11:05:23;;;;;;;;;;;11.50;99.90;;;;;;5025926;28;19932;-79
2022/04/29 11:07:52;;;;;;;;;;;11.60;99.00;;;;;;5031584;28;19936;-80
2022/04/29 11:10:18;;;;;;;;;;;11.40;99.30;;;;;;5038040;28;20014;-81
2022/04/29 11:12:45;;;;;;;;;;;11.30;99.90;;;;;;5047583;28;19944;-80
2022/04/29 11:15:12;;;;;;;;;;;11.40;99.90;;;;;;5048203;28;20269;-80
2022/04/29 11:17:38;;;;;;;;;;;11.40;99.90;;;;;;5027654;28;20039;-80
2022/04/29 11:20:05;;;;;;;;;;;11.40;99.90;;;;;;5026790;28;19940;-81
2022/04/29 11:25:15;;;;;;;;;;;11.30;99.90;;;;;;5025599;28;19978;-80
2022/04/29 11:27:42;;;;;;;;;;;11.20;99.90;;;;;;5026715;28;19928;-81
2022/04/29 11:30:09;;;;;;;;;;;11.20;99.90;;;;;;5029900;28;19978;-84
2022/04/29 11:32:36;;;;;;;;;;;11.10;99.90;;;;;;5038686;28;20260;-81
2022/04/29 11:35:04;;;;;;;;;;;11.10;99.90;;;;;;5041487;28;20043;-81
2022/04/29 11:37:31;;;;;;;;;;;11.00;99.90;;;;;;5026037;28;19951;-80
2022/04/29 11:39:58;;;;;;;;;;;11.00;99.90;;;;;;5025392;28;19935;-82
2022/04/29 11:42:24;;;;;;;;;;;10.80;99.90;;;;;;5021624;28;20360;-81
2022/04/29 11:44:51;;;;;;;;;;;10.90;99.90;;;;;;5019330;28;19929;-81
2022/04/29 11:47:18;;;;;;;;;;;10.80;99.90;;;;;;5026936;28;20007;-81
2022/04/29 11:49:44;;;;;;;;;;;10.90;99.90;;;;;;5022258;28;20011;-81
2022/04/29 11:52:12;;;;;;;;;;;11.00;99.90;;;;;;5028403;28;19936;-85
2022/04/29 11:54:38;;;;;;;;;;;11.00;99.90;;;;;;5046142;28;19940;-78
2022/04/29 11:57:05;;;;;;;;;;;10.90;99.90;;;;;;5025771;28;19929;-84
2022/04/29 11:59:32;;;;;;;;;;;11.00;99.90;;;;;;5042227;28;19925;-83
2022/04/29 12:01:58;;;;;;;;;;;10.90;99.90;;;;;;5024121;28;19936;-81
2022/04/29 12:04:25;;;;;;;;;;;11.00;99.90;;;;;;5026294;28;19929;-81
2022/04/29 12:06:51;;;;;;;;;;;10.90;99.90;;;;;;5023387;28;19925;-79
2022/04/29 12:09:18;;;;;;;;;;;11.00;99.90;;;;;;5027437;28;19928;-80
2022/04/29 12:11:44;;;;;;;;;;;11.00;99.90;;;;;;4974781;28;1814961;-80
2022/04/29 12:14:11;;;;;;;;;;;11.00;99.90;;;;;;5025370;28;19951;-84
2022/04/29 12:16:37;;;;;;;;;;;11.00;99.90;;;;;;5029905;28;19932;-80
2022/04/29 12:19:04;;;;;;;;;;;10.90;99.90;;;;;;5037576;28;19929;-80
2022/04/29 12:21:30;;;;;;;;;;;10.90;99.90;;;;;;5042722;28;19937;-80
2022/04/29 12:23:57;;;;;;;;;;;11.00;98.90;;;;;;5040843;28;20353;-81
2022/04/29 12:26:23;;;;;;;;;;;11.00;99.90;;;;;;5016368;28;20007;-80
2022/04/29 12:28:50;;;;;;;;;;;11.10;99.70;;;;;;5026455;28;19935;-80
2022/04/29 12:36:45;;;;;;;;;;;11.00;99.10;;;;;;5028234;28;20355;-84
2022/04/29 12:39:12;;;;;;;;;;;11.10;99.70;;;;;;5023593;28;19944;-80
2022/04/29 12:41:38;;;;;;;;;;;11.10;99.90;;;;;;5042313;28;19925;-79
2022/04/29 12:44:05;;;;;;;;;;;11.10;99.30;;;;;;5018326;28;19933;-81
2022/04/29 12:46:32;;;;;;;;;;;11.30;99.00;;;;;;5041239;28;19932;-80
2022/04/29 12:48:58;;;;;;;;;;;11.20;99.80;;;;;;5029726;28;20020;-81
2022/04/29 12:51:25;;;;;;;;;;;11.20;99.10;;;;;;5028984;28;19928;-80
2022/04/29 12:53:51;;;;;;;;;;;11.20;98.80;;;;;;5028897;28;19994;-80
2022/04/29 12:56:18;;;;;;;;;;;11.20;98.40;;;;;;5028682;28;19925;-80
2022/04/29 12:58:44;;;;;;;;;;;11.30;98.80;;;;;;5025871;28;19929;-80
2022/04/29 13:01:11;;;;;;;;;;;11.30;98.60;;;;;;5022842;28;19929;-79
2022/04/29 13:03:38;;;;;;;;;;;11.30;98.40;;;;;;5028128;28;19988;-80
2022/04/29 13:06:04;;;;;;;;;;;11.30;98.80;;;;;;5029204;28;19925;-80
2022/04/29 13:08:31;;;;;;;;;;;11.30;97.70;;;;;;5032745;28;19936;-80
2022/04/29 13:10:58;;;;;;;;;;;11.10;98.60;;;;;;5045387;28;19962;-79
2022/04/29 13:13:24;;;;;;;;;;;11.20;97.70;;;;;;5027626;28;19932;-80
2022/04/29 13:15:51;;;;;;;;;;;11.30;98.50;;;;;;5024812;28;19929;-81
2022/04/29 13:18:17;;;;;;;;;;;11.30;98.20;;;;;;5027560;28;19932;-85
2022/04/29 13:20:44;;;;;;;;;;;11.20;98.20;;;;;;5045812;28;19925;-80
2022/04/29 13:23:11;;;;;;;;;;;11.00;98.40;;;;;;5051227;28;20394;-80
2022/04/29 13:25:37;;;;;;;;;;;11.20;98.90;;;;;;5048327;28;19928;-79
2022/04/29 13:28:04;;;;;;;;;;;11.20;98.90;;;;;;5033445;28;19925;-81
2022/04/29 13:30:30;;;;;;;;;;;11.30;98.00;;;;;;5024779;28;19925;-79
2022/04/29 13:32:57;;;;;;;;;;;11.40;98.20;;;;;;5048589;28;19936;-78
2022/04/29 13:35:23;;;;;;;;;;;11.60;97.40;;;;;;5056798;28;19928;-79
2022/04/29 13:37:50;;;;;;;;;;;11.60;98.20;;;;;;5035330;28;19925;-79
2022/04/29 13:40:17;;;;;;;;;;;11.70;97.70;;;;;;5058699;28;19940;-84
2022/04/29 13:42:43;;;;;;;;;;;11.70;98.30;;;;;;5056618;28;19924;-81
2022/04/29 13:45:10;;;;;;;;;;;11.70;98.00;;;;;;5053695;28;20336;-79
2022/04/29 13:47:37;;;;;;;;;;;11.60;98.40;;;;;;5046399;28;20402;-78
2022/04/29 13:50:04;;;;;;;;;;;11.60;98.90;;;;;;5032039;28;20292;-79
2022/04/29 13:55:15;;;;;;;;;;;11.50;98.60;;;;;;5032692;28;19924;-80
2022/04/29 13:57:42;;;;;;;;;;;11.50;99.20;;;;;;5053250;28;19931;-79
2022/04/29 14:00:10;;;;;;;;;;;11.40;99.40;;;;;;5028388;28;19936;-80
2022/04/29 14:02:36;;;;;;;;;;;11.50;98.70;;;;;;5049661;28;19928;-79
2022/04/29 14:05:03;;;;;;;;;;;11.40;98.30;;;;;;5035742;28;19925;-78
2022/04/29 14:07:30;;;;;;;;;;;11.40;98.50;;;;;;5051810;28;19924;-81
2022/04/29 14:09:56;;;;;;;;;;;11.40;98.10;;;;;;5040708;28;20368;-78
2022/04/29 14:12:25;;;;;;;;;;;11.50;98.30;;;;;;5053447;28;19925;-79
2022/04/29 14:14:53;;;;;;;;;;;11.50;99.40;;;;;;5031438;28;19990;-83
2022/04/29 14:17:19;;;;;;;;;;;11.50;97.80;;;;;;5052875;28;19925;-84
2022/04/29 14:19:46;;;;;;;;;;;11.60;98.50;;;;;;5031748;28;19932;-80
2022/04/29 14:22:12;;;;;;;;;;;11.60;98.30;;;;;;5053080;28;19933;-80
2022/04/29 14:24:39;;;;;;;;;;;11.60;99.40;;;;;;5050050;28;19925;-78
2022/04/29 14:27:05;;;;;;;;;;;11.50;99.90;;;;;;5048898;28;19925;-79
2022/04/29 14:29:33;;;;;;;;;;;11.50;99.90;;;;;;5045951;28;19929;-80
2022/04/29 14:32:00;;;;;;;;;;;11.60;99.90;;;;;;5036134;28;20376;-79
2022/04/29 14:34:28;;;;;;;;;;;11.60;99.90;;;;;;5031720;28;19924;-81
2022/04/29 14:36:54;;;;;;;;;;;11.40;99.90;;;;;;5057118;28;19940;-80
2022/04/29 14:39:21;;;;;;;;;;;11.40;99.90;;;;;;5043631;28;19926;-85
2022/04/29 14:41:48;;;;;;;;;;;11.40;99.90;;;;;;5026495;28;19928;-80
2022/04/29 14:44:14;;;;;;;;;;;11.40;99.90;;;;;;5034860;28;20383;-79
2022/04/29 14:46:41;;;;;;;;;;;11.30;99.90;;;;;;5030045;28;20549;-80
2022/04/29 14:49:08;;;;;;;;;;;11.20;99.90;;;;;;5028662;28;19970;-80
2022/04/29 14:51:35;;;;;;;;;;;11.10;99.90;;;;;;5053503;28;19928;-80
2022/04/29 14:54:02;;;;;;;;;;;11.00;99.90;;;;;;5058325;28;20493;-80